Time;durP1;ratioP1;P1;durP2;ratioP2;P2;SDS_P1;SDS_P2;PMS_P1;PMS_P2;Temp;Humidity;BMP_temperature;BMP_pressure;BME280_temperature;BME280_humidity;BME280_pressure;Samples;Min_cycle;Max_cycle;Signal;HPM_P1;HPM_P2
2023/04/18 00:01:26;;;;;;;25.33;16.75;;;;;;;;;;5058967;28;20040;-71
2023/04/18 00:03:53;;;;;;;25.50;16.77;;;;;;;;;;5056551;28;20946;-70
2023/04/18 00:06:21;;;;;;;24.40;16.17;;;;;;;;;;5023671;28;20119;-70
2023/04/18 00:08:46;;;;;;;24.63;16.75;;;;;;;;;;5056404;28;20511;-71
2023/04/18 00:11:11;;;;;;;24.45;16.13;;;;;;;;;;5038576;28;20052;-70
2023/04/18 00:13:39;;;;;;;24.13;16.58;;;;;;;;;;5035328;28;20123;-72
2023/04/18 00:16:06;;;;;;;25.95;16.88;;;;;;;;;;5061343;28;20028;-71
2023/04/18 00:18:31;;;;;;;25.27;16.65;;;;;;;;;;5037681;28;20120;-70
2023/04/18 00:20:57;;;;;;;23.45;15.90;;;;;;;;;;5059830;28;20484;-70
2023/04/18 00:23:27;;;;;;;28.67;16.20;;;;;;;;;;5056233;28;20041;-71
2023/04/18 00:25:52;;;;;;;27.30;16.67;;;;;;;;;;5056827;28;20047;-71
2023/04/18 00:28:17;;;;;;;27.88;16.67;;;;;;;;;;5060433;28;20059;-71
2023/04/18 00:30:42;;;;;;;25.85;16.30;;;;;;;;;;5061246;28;20078;-71
2023/04/18 00:33:10;;;;;;;23.52;14.93;;;;;;;;;;5059510;28;20032;-70
2023/04/18 00:35:38;;;;;;;25.58;16.20;;;;;;;;;;5057515;28;20130;-70
2023/04/18 00:38:03;;;;;;;24.05;16.35;;;;;;;;;;5058537;28;20041;-71
2023/04/18 00:40:30;;;;;;;23.27;14.82;;;;;;;;;;5058125;28;20516;-72
2023/04/18 00:42:56;;;;;;;23.98;15.77;;;;;;;;;;5056108;28;20039;-71
2023/04/18 00:45:21;;;;;;;21.75;15.15;;;;;;;;;;5057947;28;20097;-72
2023/04/18 00:47:46;;;;;;;24.52;15.30;;;;;;;;;;5056974;28;20323;-71
2023/04/18 00:50:12;;;;;;;25.08;15.20;;;;;;;;;;5033192;28;20044;-71
2023/04/18 00:52:37;;;;;;;22.60;14.63;;;;;;;;;;5037239;28;20062;-70
2023/04/18 00:55:05;;;;;;;24.73;15.40;;;;;;;;;;5058818;28;20051;-71
2023/04/18 00:57:30;;;;;;;20.60;14.38;;;;;;;;;;5056055;28;20036;-71
2023/04/18 00:59:55;;;;;;;20.70;14.57;;;;;;;;;;5056243;28;20268;-71
2023/04/18 01:02:21;;;;;;;21.73;14.80;;;;;;;;;;5033343;28;20068;-70
2023/04/18 01:04:46;;;;;;;20.95;14.70;;;;;;;;;;5056048;28;20039;-70
2023/04/18 01:07:12;;;;;;;24.10;14.20;;;;;;;;;;5037366;28;20504;-71
2023/04/18 01:09:37;;;;;;;23.73;14.52;;;;;;;;;;5028891;28;20040;-70
2023/04/18 01:12:03;;;;;;;20.88;14.80;;;;;;;;;;5055763;28;20044;-71
2023/04/18 01:14:28;;;;;;;22.95;15.23;;;;;;;;;;5059949;28;20424;-71
2023/04/18 01:16:53;;;;;;;25.05;14.98;;;;;;;;;;5056438;28;20124;-72
2023/04/18 01:19:18;;;;;;;23.17;14.63;;;;;;;;;;5042268;28;20719;-70
2023/04/18 01:21:44;;;;;;;24.38;14.75;;;;;;;;;;5038451;28;20112;-72
2023/04/18 01:24:14;;;;;;;20.52;13.88;;;;;;;;;;5060652;28;20041;-72
2023/04/18 01:26:40;;;;;;;20.88;14.55;;;;;;;;;;5042511;28;20204;-72
2023/04/18 01:29:06;;;;;;;21.33;13.90;;;;;;;;;;5063033;28;20040;-71
2023/04/18 01:31:38;;;;;;;19.60;14.07;;;;;;;;;;5059592;28;20623;-72
2023/04/18 01:34:21;;;;;;;23.33;14.82;;;;;;;;;;5055042;28;20089;-72
2023/04/18 01:36:47;;;;;;;19.92;13.82;;;;;;;;;;5062348;28;20036;-72
2023/04/18 01:39:12;;;;;;;18.52;13.77;;;;;;;;;;5038095;28;20032;-71
2023/04/18 01:41:37;;;;;;;22.13;13.95;;;;;;;;;;5061594;28;20093;-71
2023/04/18 01:44:03;;;;;;;22.85;15.13;;;;;;;;;;5058369;28;20036;-70
2023/04/18 01:46:28;;;;;;;20.63;14.75;;;;;;;;;;5060042;28;20572;-71
2023/04/18 01:48:54;;;;;;;20.35;13.40;;;;;;;;;;5061070;28;20039;-72
2023/04/18 01:51:22;;;;;;;20.27;14.10;;;;;;;;;;5060123;28;20079;-69
2023/04/18 01:53:47;;;;;;;20.10;14.30;;;;;;;;;;5059818;28;20032;-73
2023/04/18 01:56:12;;;;;;;21.27;13.82;;;;;;;;;;5057218;28;20129;-72
2023/04/18 01:58:43;;;;;;;18.48;13.55;;;;;;;;;;5036925;28;20097;-72
2023/04/18 02:01:10;;;;;;;21.40;13.85;;;;;;;;;;5038562;28;20032;-71
2023/04/18 02:03:36;;;;;;;19.50;13.68;;;;;;;;;;5060965;28;20634;-72
2023/04/18 02:06:02;;;;;;;19.38;13.35;;;;;;;;;;5040094;28;20238;-72
2023/04/18 02:08:29;;;;;;;20.05;13.60;;;;;;;;;;5060277;28;20048;-72
2023/04/18 02:10:54;;;;;;;21.10;13.43;;;;;;;;;;5035492;28;20043;-72
2023/04/18 02:13:20;;;;;;;20.13;13.45;;;;;;;;;;5039584;28;20044;-72
2023/04/18 02:15:45;;;;;;;20.08;13.68;;;;;;;;;;5059794;28;20032;-73
2023/04/18 02:18:16;;;;;;;21.25;14.23;;;;;;;;;;5038736;28;20036;-72
2023/04/18 02:20:41;;;;;;;18.15;13.85;;;;;;;;;;5058214;28;20342;-71
2023/04/18 02:23:06;;;;;;;19.80;14.68;;;;;;;;;;5060452;28;20657;-72
2023/04/18 02:25:31;;;;;;;20.73;14.77;;;;;;;;;;5058693;28;20040;-72
2023/04/18 02:27:57;;;;;;;21.73;14.65;;;;;;;;;;5044999;28;20039;-71
2023/04/18 02:30:25;;;;;;;20.83;14.38;;;;;;;;;;5057098;28;20497;-72
2023/04/18 02:32:55;;;;;;;21.08;14.68;;;;;;;;;;5058276;28;20212;-72
2023/04/18 02:35:24;;;;;;;19.48;14.05;;;;;;;;;;5059272;28;20028;-72
2023/04/18 02:37:49;;;;;;;22.15;14.85;;;;;;;;;;5037241;28;20566;-72
2023/04/18 02:40:14;;;;;;;23.20;15.40;;;;;;;;;;5060264;28;20039;-72
2023/04/18 02:42:43;;;;;;;20.45;15.73;;;;;;;;;;5037630;28;20039;-72
2023/04/18 02:45:08;;;;;;;23.48;15.65;;;;;;;;;;5060985;28;20036;-72
2023/04/18 02:47:34;;;;;;;24.88;15.82;;;;;;;;;;5056645;28;20681;-72
2023/04/18 02:49:59;;;;;;;21.15;15.25;;;;;;;;;;5037697;28;20101;-72
2023/04/18 02:52:27;;;;;;;22.30;15.73;;;;;;;;;;5051938;28;20082;-72
2023/04/18 02:54:52;;;;;;;24.90;15.55;;;;;;;;;;5059473;28;20027;-72
2023/04/18 02:57:18;;;;;;;25.20;16.00;;;;;;;;;;5057812;28;20497;-71
2023/04/18 02:59:43;;;;;;;27.25;16.13;;;;;;;;;;5041857;28;20058;-72
2023/04/18 03:02:08;;;;;;;22.85;16.52;;;;;;;;;;5057994;28;20067;-71
2023/04/18 03:04:36;;;;;;;25.75;16.05;;;;;;;;;;5057231;28;20032;-72
2023/04/18 03:07:01;;;;;;;24.85;16.40;;;;;;;;;;5033629;28;20749;-71
2023/04/18 03:09:26;;;;;;;23.60;16.17;;;;;;;;;;5055939;28;20055;-72
2023/04/18 03:11:52;;;;;;;26.00;16.23;;;;;;;;;;5056788;28;20044;-71
2023/04/18 03:14:19;;;;;;;25.67;16.27;;;;;;;;;;5056130;28;20114;-71
2023/04/18 03:16:45;;;;;;;22.63;16.05;;;;;;;;;;5058434;28;20537;-72
2023/04/18 03:19:10;;;;;;;23.67;16.63;;;;;;;;;;5045593;28;20058;-72
2023/04/18 03:21:35;;;;;;;24.55;17.10;;;;;;;;;;5039447;28;20043;-71
2023/04/18 03:24:00;;;;;;;23.80;16.50;;;;;;;;;;5041780;28;20035;-70
2023/04/18 03:26:26;;;;;;;24.27;16.63;;;;;;;;;;5022571;28;20044;-71
2023/04/18 03:28:52;;;;;;;27.17;17.02;;;;;;;;;;5036264;28;20047;-72
2023/04/18 03:31:21;;;;;;;23.35;16.60;;;;;;;;;;5034850;28;20048;-71
2023/04/18 03:33:47;;;;;;;23.83;17.17;;;;;;;;;;5055356;28;20101;-71
2023/04/18 03:36:16;;;;;;;23.70;17.58;;;;;;;;;;5056999;28;20040;-72
2023/04/18 03:38:43;;;;;;;22.73;16.73;;;;;;;;;;5059757;28;20279;-71
2023/04/18 03:41:08;;;;;;;25.10;16.60;;;;;;;;;;5055753;28;20053;-71
2023/04/18 03:43:34;;;;;;;22.85;16.35;;;;;;;;;;5058395;28;20131;-72
2023/04/18 03:45:59;;;;;;;24.30;15.85;;;;;;;;;;5055055;28;20039;-72
2023/04/18 03:48:27;;;;;;;21.95;15.93;;;;;;;;;;5045883;28;20047;-71
2023/04/18 03:50:55;;;;;;;22.95;16.40;;;;;;;;;;5056384;28;20044;-72
2023/04/18 03:53:22;;;;;;;24.42;16.20;;;;;;;;;;5058243;28;20286;-72
2023/04/18 03:55:49;;;;;;;22.73;16.33;;;;;;;;;;5039561;28;20040;-71
2023/04/18 03:58:16;;;;;;;23.77;15.32;;;;;;;;;;5059531;28;20364;-71
2023/04/18 04:00:44;;;;;;;21.33;15.90;;;;;;;;;;5058275;28;20119;-71
2023/04/18 04:03:09;;;;;;;23.00;15.07;;;;;;;;;;5056848;28;20028;-71
2023/04/18 04:05:37;;;;;;;25.48;15.68;;;;;;;;;;5032266;28;20288;-70
2023/04/18 04:08:02;;;;;;;25.15;15.30;;;;;;;;;;5056899;28;20421;-70
2023/04/18 04:10:27;;;;;;;23.10;15.15;;;;;;;;;;5060616;28;20150;-72
2023/04/18 04:12:53;;;;;;;21.02;15.38;;;;;;;;;;5057563;28;20435;-70
2023/04/18 04:15:18;;;;;;;21.00;15.38;;;;;;;;;;5060084;28;20447;-72
2023/04/18 04:17:43;;;;;;;21.88;15.75;;;;;;;;;;5039685;28;20044;-71
2023/04/18 04:20:11;;;;;;;21.58;15.77;;;;;;;;;;5055880;28;20043;-72
2023/04/18 04:22:39;;;;;;;22.50;15.52;;;;;;;;;;5056823;28;20047;-71
2023/04/18 04:25:05;;;;;;;20.77;15.73;;;;;;;;;;5059159;28;22338;-72
2023/04/18 04:27:32;;;;;;;24.67;17.08;;;;;;;;;;5055524;28;20048;-73
2023/04/18 04:29:59;;;;;;;23.63;16.83;;;;;;;;;;5057992;28;20051;-72
2023/04/18 04:32:24;;;;;;;23.15;16.13;;;;;;;;;;5059594;28;20086;-72
2023/04/18 04:34:52;;;;;;;27.77;17.42;;;;;;;;;;5058652;28;20241;-72
2023/04/18 04:37:17;;;;;;;24.17;16.25;;;;;;;;;;5059219;28;20028;-73
2023/04/18 04:39:43;;;;;;;23.88;16.52;;;;;;;;;;5058598;28;20615;-72
2023/04/18 04:42:08;;;;;;;25.80;17.08;;;;;;;;;;5056516;28;20089;-72
2023/04/18 04:44:34;;;;;;;26.85;17.30;;;;;;;;;;5056212;28;20041;-71
2023/04/18 04:46:59;;;;;;;25.00;16.98;;;;;;;;;;5057376;28;20289;-71
2023/04/18 04:49:27;;;;;;;24.58;16.88;;;;;;;;;;5055394;28;22334;-73
2023/04/18 04:51:52;;;;;;;25.15;16.77;;;;;;;;;;5057129;28;20104;-71
2023/04/18 04:54:18;;;;;;;24.65;16.50;;;;;;;;;;5061419;28;20536;-71
2023/04/18 04:56:43;;;;;;;24.05;16.70;;;;;;;;;;5063711;28;20100;-72
2023/04/18 04:59:08;;;;;;;22.83;16.05;;;;;;;;;;5058848;28;20036;-71
2023/04/18 05:01:33;;;;;;;26.05;17.35;;;;;;;;;;5062677;28;20674;-71
2023/04/18 05:04:01;;;;;;;27.55;18.35;;;;;;;;;;5062898;28;20047;-71
2023/04/18 05:06:26;;;;;;;26.52;16.92;;;;;;;;;;5060217;28;20032;-71
2023/04/18 05:08:52;;;;;;;28.40;17.08;;;;;;;;;;5062772;28;20149;-72
2023/04/18 05:11:19;;;;;;;25.88;16.95;;;;;;;;;;5063638;28;20393;-71
2023/04/18 05:13:45;;;;;;;23.85;17.13;;;;;;;;;;5059250;28;20040;-71
2023/04/18 05:16:11;;;;;;;25.55;17.17;;;;;;;;;;5058826;28;20036;-73
2023/04/18 05:18:40;;;;;;;26.13;18.02;;;;;;;;;;5041340;28;20438;-71
2023/04/18 05:21:06;;;;;;;24.95;17.88;;;;;;;;;;5038288;28;20043;-70
2023/04/18 05:23:31;;;;;;;24.38;17.10;;;;;;;;;;5061770;28;20041;-70
2023/04/18 05:25:59;;;;;;;24.33;16.73;;;;;;;;;;5059536;28;20536;-70
2023/04/18 05:28:27;;;;;;;26.20;16.92;;;;;;;;;;5041289;28;20377;-70
2023/04/18 05:30:59;;;;;;;24.38;16.90;;;;;;;;;;5039991;28;20048;-70
2023/04/18 05:33:25;;;;;;;26.08;16.70;;;;;;;;;;5060632;28;20043;-69
2023/04/18 05:35:50;;;;;;;24.05;17.33;;;;;;;;;;5032681;28;20040;-68
2023/04/18 05:38:15;;;;;;;28.50;17.67;;;;;;;;;;5053518;28;20603;-69
2023/04/18 05:40:42;;;;;;;25.75;16.00;;;;;;;;;;5056466;28;20047;-69
2023/04/18 05:43:07;;;;;;;23.85;16.27;;;;;;;;;;5035525;28;20028;-69
2023/04/18 05:45:32;;;;;;;25.17;17.65;;;;;;;;;;5038284;28;20045;-70
2023/04/18 05:48:00;;;;;;;25.88;16.77;;;;;;;;;;5056806;28;20031;-70
2023/04/18 05:50:27;;;;;;;26.33;15.80;;;;;;;;;;5058155;28;20059;-70
2023/04/18 05:52:52;;;;;;;21.98;15.90;;;;;;;;;;5035346;28;20050;-69
2023/04/18 05:55:18;;;;;;;23.85;15.48;;;;;;;;;;5057992;28;20214;-70
2023/04/18 05:57:43;;;;;;;22.17;15.80;;;;;;;;;;5035935;28;20527;-70
2023/04/18 06:00:10;;;;;;;22.10;14.85;;;;;;;;;;5059310;28;20119;-69
2023/04/18 06:02:35;;;;;;;20.77;14.70;;;;;;;;;;5038640;28;20044;-70
2023/04/18 06:05:01;;;;;;;22.00;14.60;;;;;;;;;;5061488;28;20388;-69
2023/04/18 06:07:26;;;;;;;21.23;13.95;;;;;;;;;;5037990;28;20127;-70
2023/04/18 06:09:52;;;;;;;21.95;14.32;;;;;;;;;;5057294;28;20062;-69
2023/04/18 06:12:18;;;;;;;21.45;14.40;;;;;;;;;;5049005;28;20208;-68
2023/04/18 06:14:48;;;;;;;18.80;13.57;;;;;;;;;;5023166;28;20039;-69
2023/04/18 06:17:15;;;;;;;20.77;13.52;;;;;;;;;;5057645;28;20445;-70
2023/04/18 06:19:43;;;;;;;18.48;12.93;;;;;;;;;;5059388;28;20124;-70
2023/04/18 06:22:08;;;;;;;21.15;13.38;;;;;;;;;;5019805;28;20067;-70
2023/04/18 06:24:33;;;;;;;20.95;12.85;;;;;;;;;;5042436;28;20678;-70
2023/04/18 06:27:00;;;;;;;17.00;12.73;;;;;;;;;;5024189;28;20066;-71
2023/04/18 06:29:29;;;;;;;16.88;12.05;;;;;;;;;;5055444;28;20366;-70
2023/04/18 06:31:54;;;;;;;16.77;12.13;;;;;;;;;;5053586;28;20656;-71
2023/04/18 06:34:19;;;;;;;15.80;11.52;;;;;;;;;;5033529;28;20036;-70
2023/04/18 06:36:45;;;;;;;15.85;11.48;;;;;;;;;;5036999;28;20067;-70
2023/04/18 06:39:10;;;;;;;16.20;11.80;;;;;;;;;;5058122;28;20119;-70
2023/04/18 06:41:35;;;;;;;16.90;11.10;;;;;;;;;;5058825;28;20058;-71
2023/04/18 06:44:03;;;;;;;16.40;10.90;;;;;;;;;;5033057;28;20037;-70
2023/04/18 06:46:31;;;;;;;14.35;10.35;;;;;;;;;;5056732;28;20838;-70
2023/04/18 06:48:56;;;;;;;14.30;10.13;;;;;;;;;;5053982;28;20047;-70
2023/04/18 06:51:21;;;;;;;15.63;11.02;;;;;;;;;;5064571;28;20522;-70
2023/04/18 06:53:47;;;;;;;16.75;10.70;;;;;;;;;;5036248;28;20036;-73
2023/04/18 06:56:12;;;;;;;14.57;10.13;;;;;;;;;;5055968;28;20473;-69
2023/04/18 06:58:37;;;;;;;14.55;10.13;;;;;;;;;;5039840;28;20047;-68
2023/04/18 07:01:03;;;;;;;15.55;10.48;;;;;;;;;;5039314;28;20040;-70
2023/04/18 07:03:28;;;;;;;13.25;9.85;;;;;;;;;;5056464;28;20078;-68
2023/04/18 07:05:54;;;;;;;15.93;10.40;;;;;;;;;;5022286;28;20036;-70
2023/04/18 07:08:22;;;;;;;15.25;9.90;;;;;;;;;;5056441;28;20063;-70
2023/04/18 07:10:47;;;;;;;12.80;9.10;;;;;;;;;;5057066;28;20423;-70
2023/04/18 07:13:12;;;;;;;14.32;9.43;;;;;;;;;;5057155;28;20044;-68
2023/04/18 07:15:40;;;;;;;14.70;9.95;;;;;;;;;;5054944;28;20055;-71
2023/04/18 07:18:05;;;;;;;12.82;9.65;;;;;;;;;;5038792;28;20808;-71
2023/04/18 07:20:31;;;;;;;12.23;9.38;;;;;;;;;;5038262;28;20047;-71
2023/04/18 07:22:58;;;;;;;13.85;9.27;;;;;;;;;;5054761;28;20508;-72
2023/04/18 07:25:24;;;;;;;14.60;9.30;;;;;;;;;;5054964;28;20089;-72
2023/04/18 07:27:49;;;;;;;14.00;9.13;;;;;;;;;;5054793;28;20047;-69
2023/04/18 07:30:17;;;;;;;13.05;9.38;;;;;;;;;;5057805;28;20135;-70
2023/04/18 07:32:46;;;;;;;12.63;9.23;;;;;;;;;;5056452;28;20038;-71
2023/04/18 07:35:11;;;;;;;14.32;8.98;;;;;;;;;;5056273;28;20051;-69
2023/04/18 07:37:36;;;;;;;14.15;9.07;;;;;;;;;;5057230;28;20047;-70
2023/04/18 07:40:03;;;;;;;13.43;9.25;;;;;;;;;;5033536;28;20468;-70
2023/04/18 07:42:28;;;;;;;12.25;8.93;;;;;;;;;;5035516;28;20456;-69
2023/04/18 07:44:57;;;;;;;12.38;8.75;;;;;;;;;;5059728;28;20040;-68
2023/04/18 07:47:23;;;;;;;12.60;8.52;;;;;;;;;;5059241;28;20039;-69
2023/04/18 07:49:48;;;;;;;11.70;8.65;;;;;;;;;;5038862;28;20028;-70
2023/04/18 07:52:15;;;;;;;11.23;8.13;;;;;;;;;;5056203;28;20081;-69
2023/04/18 07:54:41;;;;;;;14.02;8.38;;;;;;;;;;5057125;28;20037;-71
2023/04/18 07:57:06;;;;;;;12.55;8.77;;;;;;;;;;5059523;28;20199;-69
2023/04/18 07:59:34;;;;;;;13.45;8.50;;;;;;;;;;5038005;28;20073;-72
2023/04/18 08:02:01;;;;;;;12.55;8.60;;;;;;;;;;5056359;28;20456;-71
2023/04/18 08:04:27;;;;;;;14.85;8.55;;;;;;;;;;5054208;28;20401;-71
2023/04/18 08:06:52;;;;;;;10.68;8.20;;;;;;;;;;5039029;28;20044;-72
2023/04/18 08:09:19;;;;;;;11.82;8.07;;;;;;;;;;5040496;28;20171;-72
2023/04/18 08:11:45;;;;;;;11.27;8.77;;;;;;;;;;5057180;28;21021;-71
2023/04/18 08:14:10;;;;;;;12.30;8.15;;;;;;;;;;5039574;28;20035;-71
2023/04/18 08:16:35;;;;;;;12.77;8.98;;;;;;;;;;5056437;28;20046;-71
2023/04/18 08:19:01;;;;;;;11.20;8.60;;;;;;;;;;5054889;28;20160;-71
2023/04/18 08:21:26;;;;;;;13.20;8.90;;;;;;;;;;5060443;28;20117;-69
2023/04/18 08:23:51;;;;;;;12.00;8.40;;;;;;;;;;5052701;28;20036;-70
2023/04/18 08:26:17;;;;;;;12.98;8.70;;;;;;;;;;5059208;28;20044;-71
2023/04/18 08:28:43;;;;;;;12.05;8.50;;;;;;;;;;5040771;28;20118;-71
2023/04/18 08:31:14;;;;;;;12.85;8.25;;;;;;;;;;5061578;28;20056;-70
2023/04/18 08:33:39;;;;;;;12.88;9.00;;;;;;;;;;5023276;28;20038;-71
2023/04/18 08:36:05;;;;;;;10.75;8.48;;;;;;;;;;5040508;28;20041;-70
2023/04/18 08:38:30;;;;;;;10.52;8.30;;;;;;;;;;5056607;28;20197;-69
2023/04/18 08:40:55;;;;;;;11.07;8.27;;;;;;;;;;5060695;28;20396;-70
2023/04/18 08:43:21;;;;;;;10.73;7.70;;;;;;;;;;5063070;28;20124;-70
2023/04/18 08:45:47;;;;;;;10.38;7.85;;;;;;;;;;5046027;28;20063;-71
2023/04/18 08:48:16;;;;;;;10.93;7.68;;;;;;;;;;5060048;28;20563;-70
2023/04/18 08:50:42;;;;;;;10.00;7.10;;;;;;;;;;5041977;28;20048;-68
2023/04/18 08:53:07;;;;;;;8.98;7.32;;;;;;;;;;5061249;28;20077;-70
2023/04/18 08:55:34;;;;;;;9.30;6.93;;;;;;;;;;5058890;28;20032;-68
2023/04/18 08:58:03;;;;;;;9.48;6.70;;;;;;;;;;5063011;28;20966;-70
2023/04/18 09:00:29;;;;;;;9.90;6.93;;;;;;;;;;5060110;28;20063;-71
2023/04/18 09:02:57;;;;;;;8.38;6.60;;;;;;;;;;5058419;28;20035;-71
2023/04/18 09:05:26;;;;;;;9.13;6.57;;;;;;;;;;5029107;28;20032;-68
2023/04/18 09:07:52;;;;;;;10.13;6.82;;;;;;;;;;5037896;28;20041;-68
2023/04/18 09:10:25;;;;;;;8.20;5.93;;;;;;;;;;5058860;28;20140;-69
2023/04/18 09:12:52;;;;;;;8.65;6.25;;;;;;;;;;5045885;28;20028;-70
2023/04/18 09:15:22;;;;;;;9.60;6.20;;;;;;;;;;5041010;28;20035;-69
2023/04/18 09:17:57;;;;;;;9.85;6.07;;;;;;;;;;5045478;28;20055;-69
2023/04/18 09:20:33;;;;;;;8.23;6.70;;;;;;;;;;5042480;28;20040;-69
2023/04/18 09:23:02;;;;;;;10.20;5.35;;;;;;;;;;5042832;28;20534;-69
2023/04/18 09:25:34;;;;;;;10.57;6.43;;;;;;;;;;5038318;28;20059;-69
2023/04/18 09:28:22;;;;;;;9.00;6.22;;;;;;;;;;5041945;28;20036;-70
2023/04/18 09:30:50;;;;;;;7.53;5.97;;;;;;;;;;5022415;28;20052;-68
2023/04/18 09:33:16;;;;;;;8.80;6.20;;;;;;;;;;5040612;28;20039;-70
2023/04/18 09:35:42;;;;;;;7.70;6.45;;;;;;;;;;5021818;28;20861;-68
2023/04/18 09:38:07;;;;;;;9.10;6.65;;;;;;;;;;5041165;28;20052;-69
2023/04/18 09:40:32;;;;;;;8.98;6.78;;;;;;;;;;5042290;28;20807;-70
2023/04/18 09:42:58;;;;;;;10.43;7.03;;;;;;;;;;5039773;28;20043;-68
2023/04/18 09:45:24;;;;;;;9.15;6.63;;;;;;;;;;5043390;28;20041;-69
2023/04/18 09:47:50;;;;;;;8.70;6.60;;;;;;;;;;5040654;28;21037;-69
2023/04/18 09:50:17;;;;;;;7.68;6.50;;;;;;;;;;5044614;28;20947;-72
2023/04/18 09:52:48;;;;;;;9.63;6.60;;;;;;;;;;5026501;28;20028;-70
2023/04/18 09:55:15;;;;;;;7.97;6.10;;;;;;;;;;5026951;28;20485;-70
2023/04/18 09:57:42;;;;;;;9.88;6.07;;;;;;;;;;5041186;28;20067;-69
2023/04/18 10:00:24;;;;;;;9.70;6.28;;;;;;;;;;5041693;28;20128;-73
2023/04/18 10:02:52;;;;;;;10.25;7.25;;;;;;;;;;5022144;28;20132;-70
2023/04/18 10:05:20;;;;;;;8.93;6.45;;;;;;;;;;5020094;28;20024;-72
2023/04/18 10:07:47;;;;;;;10.02;6.65;;;;;;;;;;5042674;28;20024;-70
2023/04/18 10:10:13;;;;;;;12.05;6.95;;;;;;;;;;5043386;28;20066;-70
2023/04/18 10:12:41;;;;;;;8.32;6.70;;;;;;;;;;5018661;28;20120;-69
2023/04/18 10:15:08;;;;;;;8.52;6.85;;;;;;;;;;5043099;28;20032;-69
2023/04/18 10:17:51;;;;;;;7.90;6.57;;;;;;;;;;5042102;28;20078;-68
2023/04/18 10:20:19;;;;;;;8.45;7.15;;;;;;;;;;5038816;28;20028;-69
2023/04/18 10:22:47;;;;;;;8.23;6.90;;;;;;;;;;5026048;28;20295;-71
2023/04/18 10:25:13;;;;;;;8.82;6.88;;;;;;;;;;5041987;28;20075;-69
2023/04/18 10:27:47;;;;;;;9.43;6.90;;;;;;;;;;5040547;28;20032;-68
2023/04/18 10:30:15;;;;;;;13.20;7.50;;;;;;;;;;5021277;28;20139;-69
2023/04/18 10:32:41;;;;;;;10.45;7.72;;;;;;;;;;5023026;28;20034;-69
2023/04/18 10:35:06;;;;;;;10.18;7.78;;;;;;;;;;5035403;28;20589;-70
2023/04/18 10:37:32;;;;;;;12.52;7.45;;;;;;;;;;5038313;28;20040;-69
2023/04/18 10:39:59;;;;;;;11.02;7.40;;;;;;;;;;5037092;28;20071;-71
2023/04/18 10:42:43;;;;;;;9.35;7.43;;;;;;;;;;5034275;28;22049;-69
2023/04/18 10:45:19;;;;;;;8.73;7.47;;;;;;;;;;5015209;28;20034;-70
2023/04/18 10:47:44;;;;;;;11.50;8.30;;;;;;;;;;5037680;28;20294;-67
2023/04/18 10:50:12;;;;;;;9.77;7.38;;;;;;;;;;5016593;28;20035;-67
2023/04/18 10:52:43;;;;;;;8.90;6.95;;;;;;;;;;5034189;28;20039;-67
2023/04/18 10:55:23;;;;;;;9.35;7.60;;;;;;;;;;5003674;28;20185;-67
2023/04/18 10:57:49;;;;;;;11.35;7.50;;;;;;;;;;5036602;28;20437;-68
2023/04/18 11:00:19;;;;;;;11.27;7.20;;;;;;;;;;5034296;28;25671;-66
2023/04/18 11:02:52;;;;;;;10.02;7.35;;;;;;;;;;5034874;28;20132;-68
2023/04/18 11:05:21;;;;;;;11.60;7.38;;;;;;;;;;5015981;28;20167;-68
2023/04/18 11:07:47;;;;;;;9.43;6.85;;;;;;;;;;5033226;28;20112;-66
2023/04/18 11:10:15;;;;;;;9.57;7.93;;;;;;;;;;5039022;28;20419;-66
2023/04/18 11:12:40;;;;;;;11.18;8.32;;;;;;;;;;5033152;28;20559;-69
2023/04/18 11:15:10;;;;;;;11.70;7.65;;;;;;;;;;5018372;28;22173;-68
2023/04/18 11:17:38;;;;;;;8.57;7.05;;;;;;;;;;5002602;28;20021;-66
2023/04/18 11:20:10;;;;;;;10.65;7.57;;;;;;;;;;5034046;28;20048;-67
2023/04/18 11:22:44;;;;;;;10.00;7.53;;;;;;;;;;5018953;28;20393;-67
2023/04/18 11:25:10;;;;;;;11.40;7.18;;;;;;;;;;5023554;28;20433;-66
2023/04/18 11:27:35;;;;;;;10.20;7.53;;;;;;;;;;5039013;28;20039;-67
2023/04/18 11:30:00;;;;;;;9.15;7.30;;;;;;;;;;5038759;28;20067;-66
2023/04/18 11:32:25;;;;;;;11.57;8.13;;;;;;;;;;5037045;28;20595;-67
2023/04/18 11:34:52;;;;;;;10.25;8.40;;;;;;;;;;5014677;28;20032;-67
2023/04/18 11:37:17;;;;;;;10.45;8.55;;;;;;;;;;5038548;28;20539;-67
2023/04/18 11:39:43;;;;;;;13.88;8.65;;;;;;;;;;5013755;28;20532;-67
2023/04/18 11:42:08;;;;;;;14.38;8.63;;;;;;;;;;5039428;28;20040;-68
2023/04/18 11:44:38;;;;;;;11.55;8.73;;;;;;;;;;5035519;28;20035;-66
2023/04/18 11:47:22;;;;;;;11.48;8.10;;;;;;;;;;5019855;28;20035;-69
2023/04/18 11:49:53;;;;;;;12.45;8.18;;;;;;;;;;5036888;28;20032;-67
2023/04/18 11:52:21;;;;;;;10.60;8.60;;;;;;;;;;5020210;28;20155;-68
2023/04/18 11:54:48;;;;;;;10.57;8.55;;;;;;;;;;5035334;28;20047;-66
2023/04/18 11:57:19;;;;;;;12.93;9.15;;;;;;;;;;5036333;28;20552;-68
2023/04/18 11:59:49;;;;;;;11.63;9.50;;;;;;;;;;5036278;28;20647;-68
2023/04/18 12:02:16;;;;;;;13.40;9.20;;;;;;;;;;5000226;28;20316;-68
2023/04/18 12:04:58;;;;;;;10.85;9.00;;;;;;;;;;5038351;28;20253;-68
2023/04/18 12:07:30;;;;;;;15.80;8.80;;;;;;;;;;5039765;28;20032;-69
2023/04/18 12:09:56;;;;;;;10.90;8.98;;;;;;;;;;5037213;28;20032;-69
2023/04/18 12:12:21;;;;;;;11.93;9.57;;;;;;;;;;5036844;28;20078;-69
2023/04/18 12:14:47;;;;;;;12.38;9.40;;;;;;;;;;5034885;28;20540;-69
2023/04/18 12:17:12;;;;;;;13.63;9.73;;;;;;;;;;5035609;28;20058;-67
2023/04/18 12:19:37;;;;;;;14.00;10.50;;;;;;;;;;5013963;28;22009;-67
2023/04/18 12:22:06;;;;;;;12.00;9.75;;;;;;;;;;5033474;28;20024;-69
2023/04/18 12:24:32;;;;;;;14.10;10.30;;;;;;;;;;5033184;28;20593;-67
2023/04/18 12:26:57;;;;;;;13.98;10.48;;;;;;;;;;5019224;28;20036;-69
2023/04/18 12:29:23;;;;;;;14.40;10.30;;;;;;;;;;5034117;28;20059;-67
2023/04/18 12:31:48;;;;;;;13.68;10.20;;;;;;;;;;5012914;28;20417;-68
2023/04/18 12:34:14;;;;;;;14.15;9.70;;;;;;;;;;5033012;28;20279;-67
2023/04/18 12:36:42;;;;;;;12.75;9.82;;;;;;;;;;5035648;28;21696;-68
2023/04/18 12:39:08;;;;;;;15.95;10.35;;;;;;;;;;5034963;28;20036;-69
2023/04/18 12:41:33;;;;;;;14.95;9.88;;;;;;;;;;5034889;28;20281;-66
2023/04/18 12:44:01;;;;;;;12.60;10.48;;;;;;;;;;5034004;28;20148;-68
2023/04/18 12:46:26;;;;;;;16.35;10.43;;;;;;;;;;5036697;28;20036;-67
2023/04/18 12:48:51;;;;;;;11.90;10.23;;;;;;;;;;5016585;28;22574;-69
2023/04/18 12:51:16;;;;;;;13.63;10.38;;;;;;;;;;5014248;28;20125;-70
2023/04/18 12:53:44;;;;;;;14.10;11.00;;;;;;;;;;5033913;28;20551;-68
2023/04/18 12:56:10;;;;;;;13.13;10.15;;;;;;;;;;5035057;28;20373;-68
2023/04/18 12:58:35;;;;;;;12.65;11.00;;;;;;;;;;5036550;28;20128;-69
2023/04/18 13:01:03;;;;;;;12.95;10.45;;;;;;;;;;5035824;28;20032;-66
2023/04/18 13:03:28;;;;;;;13.00;10.32;;;;;;;;;;5036289;28;20808;-67
2023/04/18 13:05:54;;;;;;;14.23;10.95;;;;;;;;;;5036433;28;20109;-67
2023/04/18 13:08:19;;;;;;;13.73;11.25;;;;;;;;;;5036922;28;20036;-67
2023/04/18 13:10:47;;;;;;;12.70;10.43;;;;;;;;;;5038662;28;20040;-67
2023/04/18 13:13:13;;;;;;;14.25;11.40;;;;;;;;;;5035468;28;20559;-67
2023/04/18 13:15:38;;;;;;;15.02;11.73;;;;;;;;;;5039539;28;20059;-68
2023/04/18 13:18:04;;;;;;;13.35;10.88;;;;;;;;;;5026507;28;20079;-67
2023/04/18 13:20:30;;;;;;;15.20;11.15;;;;;;;;;;5040714;28;20044;-66
2023/04/18 13:22:56;;;;;;;14.35;11.50;;;;;;;;;;5018639;28;20112;-67
2023/04/18 13:25:21;;;;;;;14.68;11.50;;;;;;;;;;5020094;28;20086;-65
2023/04/18 13:27:48;;;;;;;14.70;10.80;;;;;;;;;;5039949;28;20585;-66
2023/04/18 13:30:14;;;;;;;12.88;11.35;;;;;;;;;;5040211;28;20032;-68
2023/04/18 13:32:42;;;;;;;14.80;11.77;;;;;;;;;;5037854;28;20048;-69
2023/04/18 13:35:08;;;;;;;14.10;11.35;;;;;;;;;;5020129;28;21934;-72
2023/04/18 13:37:33;;;;;;;13.98;10.85;;;;;;;;;;5039872;28;20349;-68
2023/04/18 13:39:59;;;;;;;14.63;11.93;;;;;;;;;;5026980;28;20101;-68
2023/04/18 13:42:24;;;;;;;16.75;12.13;;;;;;;;;;5019536;28;20081;-66
2023/04/18 13:44:52;;;;;;;15.55;12.52;;;;;;;;;;5038292;28;22041;-67
2023/04/18 13:47:19;;;;;;;16.08;12.65;;;;;;;;;;5035459;28;20473;-70
2023/04/18 13:49:45;;;;;;;17.70;12.02;;;;;;;;;;5037770;28;20071;-67
2023/04/18 13:52:12;;;;;;;15.90;12.93;;;;;;;;;;5037673;28;20382;-68
2023/04/18 13:54:38;;;;;;;14.70;11.73;;;;;;;;;;5040872;28;20274;-67
2023/04/18 13:57:10;;;;;;;14.07;11.70;;;;;;;;;;5018909;28;20391;-71
2023/04/18 13:59:37;;;;;;;13.18;10.85;;;;;;;;;;5012648;28;20040;-68
2023/04/18 14:02:02;;;;;;;13.45;10.52;;;;;;;;;;5037032;28;20089;-73
2023/04/18 14:04:31;;;;;;;14.88;10.68;;;;;;;;;;5030578;28;21203;-77
2023/04/18 14:06:56;;;;;;;12.55;10.98;;;;;;;;;;5035374;28;20039;-68
2023/04/18 14:09:21;;;;;;;14.02;11.07;;;;;;;;;;5037833;28;20044;-67
2023/04/18 14:11:47;;;;;;;14.80;11.30;;;;;;;;;;5034997;28;20051;-67
2023/04/18 14:14:12;;;;;;;15.13;11.07;;;;;;;;;;5036946;28;20774;-68
2023/04/18 14:16:37;;;;;;;12.80;10.98;;;;;;;;;;5037344;28;20097;-68
2023/04/18 14:19:07;;;;;;;13.82;11.45;;;;;;;;;;5035683;28;22062;-68
2023/04/18 14:21:33;;;;;;;14.70;11.32;;;;;;;;;;5030656;28;20055;-67